Malaysia Virtual Airlines Airport Information Service

Sepang/KL International Airport

ICAO: WMKK Country: Malaysia
Latitude: 2.74558 Longitude: 101.71
Latest Arrival : MH2621 (WBKK-WMKK) Latest Departure : MH1432 (WMKK-WMKL)


WX CaptureLIVE
Data provided by noaa.gov | Fetched at 08:18:11

METAR : WMKK 160800Z 01005KT 310V070 9000 FEW017CB 28/24 Q1008 RETS NOSIG

TAF : WMKK 160500Z 1606/1712 VRB02KT 9999 FEW018 TEMPO 1606/1611 29010KT 3000 TSRA FEW008 FEW016CB SCT020 PROB30 TEMPO 1620/1700 4000 TSRA FEW015CB SCT018


Runway Data for WMKK
Data provided by openaviationdata.com

Runway ID Mag Var Hdg Length Elevation Surface ILS Freq ILS Id ILS Slope
14L 0 146° 13575 ft 70 ft Concrete 108.5 IEL 3
14R 0 146° 13353 ft 70 ft Concrete 110.7 IWR 3
32L 0 326° 13353 ft 70 ft Concrete 111.9 IWL 3
32R 0 326° 13575 ft 70 ft Concrete 109.1 IER 3

Sepang/KL International Airport, Malaysia
Use only for reference purposes



Not for navigational purposes.